sensor_id;sensor_type;location;lat;lon;timestamp;P1;durP1;ratioP1;P2;durP2;ratioP2
75007;SDS011;63554;48.940;12.050;2022-11-20T00:01:19;3.10;;;2.78;;
75007;SDS011;63554;48.940;12.050;2022-11-20T00:05:23;3.85;;;3.55;;
75007;SDS011;63554;48.940;12.050;2022-11-20T00:09:26;4.95;;;3.60;;
75007;SDS011;63554;48.940;12.050;2022-11-20T00:13:29;8.68;;;3.20;;
75007;SDS011;63554;48.940;12.050;2022-11-20T00:17:33;4.63;;;3.80;;
75007;SDS011;63554;48.940;12.050;2022-11-20T00:21:36;4.13;;;3.80;;
75007;SDS011;63554;48.940;12.050;2022-11-20T00:25:38;4.05;;;3.05;;
75007;SDS011;63554;48.940;12.050;2022-11-20T00:29:41;4.30;;;3.35;;
75007;SDS011;63554;48.940;12.050;2022-11-20T00:33:45;4.28;;;2.80;;
75007;SDS011;63554;48.940;12.050;2022-11-20T00:37:48;6.22;;;3.00;;
75007;SDS011;63554;48.940;12.050;2022-11-20T00:41:51;3.95;;;2.53;;
75007;SDS011;63554;48.940;12.050;2022-11-20T00:45:57;4.22;;;3.85;;
75007;SDS011;63554;48.940;12.050;2022-11-20T00:50:01;3.22;;;2.63;;
75007;SDS011;63554;48.940;12.050;2022-11-20T00:54:04;3.65;;;3.45;;
75007;SDS011;63554;48.940;12.050;2022-11-20T00:58:07;8.75;;;4.22;;
75007;SDS011;63554;48.940;12.050;2022-11-20T01:06:19;5.43;;;4.13;;
75007;SDS011;63554;48.940;12.050;2022-11-20T01:10:24;4.07;;;2.42;;
75007;SDS011;63554;48.940;12.050;2022-11-20T01:14:27;3.60;;;3.30;;
75007;SDS011;63554;48.940;12.050;2022-11-20T01:18:29;6.85;;;4.03;;
75007;SDS011;63554;48.940;12.050;2022-11-20T01:22:33;5.72;;;3.55;;
75007;SDS011;63554;48.940;12.050;2022-11-20T01:26:37;4.25;;;3.50;;
75007;SDS011;63554;48.940;12.050;2022-11-20T01:30:41;6.22;;;4.55;;
75007;SDS011;63554;48.940;12.050;2022-11-20T01:34:44;3.92;;;3.10;;
75007;SDS011;63554;48.940;12.050;2022-11-20T01:38:50;3.80;;;3.50;;
75007;SDS011;63554;48.940;12.050;2022-11-20T01:42:55;6.00;;;2.75;;
75007;SDS011;63554;48.940;12.050;2022-11-20T01:47:30;3.22;;;2.92;;
75007;SDS011;63554;48.940;12.050;2022-11-20T01:51:38;3.40;;;3.05;;
75007;SDS011;63554;48.940;12.050;2022-11-20T01:55:46;3.05;;;2.78;;
75007;SDS011;63554;48.940;12.050;2022-11-20T01:59:52;4.35;;;3.55;;
75007;SDS011;63554;48.940;12.050;2022-11-20T02:03:59;6.18;;;2.88;;
75007;SDS011;63554;48.940;12.050;2022-11-20T02:08:03;4.25;;;3.17;;
75007;SDS011;63554;48.940;12.050;2022-11-20T02:12:09;4.32;;;3.92;;
75007;SDS011;63554;48.940;12.050;2022-11-20T02:16:33;3.85;;;3.28;;
75007;SDS011;63554;48.940;12.050;2022-11-20T02:20:40;8.25;;;2.72;;
75007;SDS011;63554;48.940;12.050;2022-11-20T02:24:45;2.45;;;1.98;;
75007;SDS011;63554;48.940;12.050;2022-11-20T02:28:49;4.53;;;4.07;;
75007;SDS011;63554;48.940;12.050;2022-11-20T02:32:53;4.03;;;2.67;;
75007;SDS011;63554;48.940;12.050;2022-11-20T02:36:55;3.13;;;2.90;;
75007;SDS011;63554;48.940;12.050;2022-11-20T02:41:00;6.72;;;3.72;;
75007;SDS011;63554;48.940;12.050;2022-11-20T02:45:03;2.72;;;2.47;;
75007;SDS011;63554;48.940;12.050;2022-11-20T02:49:06;4.65;;;4.35;;
75007;SDS011;63554;48.940;12.050;2022-11-20T02:53:09;2.60;;;2.28;;
75007;SDS011;63554;48.940;12.050;2022-11-20T02:57:13;4.10;;;3.78;;
75007;SDS011;63554;48.940;12.050;2022-11-20T03:01:16;3.70;;;3.38;;
75007;SDS011;63554;48.940;12.050;2022-11-20T03:05:19;3.72;;;3.35;;
75007;SDS011;63554;48.940;12.050;2022-11-20T03:09:22;4.95;;;2.72;;
75007;SDS011;63554;48.940;12.050;2022-11-20T03:13:26;4.50;;;2.53;;
75007;SDS011;63554;48.940;12.050;2022-11-20T03:17:29;4.18;;;3.78;;
75007;SDS011;63554;48.940;12.050;2022-11-20T03:21:32;8.77;;;4.05;;
75007;SDS011;63554;48.940;12.050;2022-11-20T03:25:35;4.20;;;3.80;;
75007;SDS011;63554;48.940;12.050;2022-11-20T03:29:39;7.88;;;4.07;;
75007;SDS011;63554;48.940;12.050;2022-11-20T03:33:42;4.60;;;2.47;;
75007;SDS011;63554;48.940;12.050;2022-11-20T03:37:45;7.38;;;3.47;;
75007;SDS011;63554;48.940;12.050;2022-11-20T03:41:47;4.65;;;3.70;;
75007;SDS011;63554;48.940;12.050;2022-11-20T03:45:51;3.08;;;2.70;;
75007;SDS011;63554;48.940;12.050;2022-11-20T03:49:54;4.18;;;2.17;;
75007;SDS011;63554;48.940;12.050;2022-11-20T03:53:57;3.88;;;3.15;;
75007;SDS011;63554;48.940;12.050;2022-11-20T03:58:02;3.53;;;3.10;;
75007;SDS011;63554;48.940;12.050;2022-11-20T04:02:06;12.63;;;5.82;;
75007;SDS011;63554;48.940;12.050;2022-11-20T04:06:09;4.80;;;4.00;;
75007;SDS011;63554;48.940;12.050;2022-11-20T04:10:14;4.38;;;3.95;;
75007;SDS011;63554;48.940;12.050;2022-11-20T04:14:17;5.03;;;2.35;;
75007;SDS011;63554;48.940;12.050;2022-11-20T04:18:21;6.97;;;4.13;;
75007;SDS011;63554;48.940;12.050;2022-11-20T04:22:23;4.32;;;3.55;;
75007;SDS011;63554;48.940;12.050;2022-11-20T04:26:26;4.85;;;3.13;;
75007;SDS011;63554;48.940;12.050;2022-11-20T04:30:30;3.60;;;3.25;;
75007;SDS011;63554;48.940;12.050;2022-11-20T04:34:34;5.80;;;3.67;;
75007;SDS011;63554;48.940;12.050;2022-11-20T04:38:37;3.03;;;2.83;;
75007;SDS011;63554;48.940;12.050;2022-11-20T04:42:41;3.50;;;2.90;;
75007;SDS011;63554;48.940;12.050;2022-11-20T04:46:43;3.47;;;3.10;;
75007;SDS011;63554;48.940;12.050;2022-11-20T04:50:47;4.65;;;3.47;;
75007;SDS011;63554;48.940;12.050;2022-11-20T04:54:50;3.17;;;2.92;;
75007;SDS011;63554;48.940;12.050;2022-11-20T04:58:54;4.10;;;3.03;;
75007;SDS011;63554;48.940;12.050;2022-11-20T05:02:57;5.03;;;4.07;;
75007;SDS011;63554;48.940;12.050;2022-11-20T05:07:01;6.13;;;3.97;;
75007;SDS011;63554;48.940;12.050;2022-11-20T05:11:04;4.13;;;3.05;;
75007;SDS011;63554;48.940;12.050;2022-11-20T05:15:08;4.05;;;2.70;;
75007;SDS011;63554;48.940;12.050;2022-11-20T05:19:12;5.50;;;2.88;;
75007;SDS011;63554;48.940;12.050;2022-11-20T05:23:16;6.78;;;3.85;;
75007;SDS011;63554;48.940;12.050;2022-11-20T05:27:18;5.10;;;3.88;;
75007;SDS011;63554;48.940;12.050;2022-11-20T05:31:22;3.45;;;3.15;;
75007;SDS011;63554;48.940;12.050;2022-11-20T05:35:28;3.58;;;2.92;;
75007;SDS011;63554;48.940;12.050;2022-11-20T05:39:32;3.28;;;3.08;;
75007;SDS011;63554;48.940;12.050;2022-11-20T05:43:35;3.22;;;2.97;;
75007;SDS011;63554;48.940;12.050;2022-11-20T05:47:39;3.30;;;2.83;;
75007;SDS011;63554;48.940;12.050;2022-11-20T05:51:41;3.75;;;3.25;;
75007;SDS011;63554;48.940;12.050;2022-11-20T05:55:45;2.15;;;1.85;;
75007;SDS011;63554;48.940;12.050;2022-11-20T05:59:48;5.00;;;2.90;;
75007;SDS011;63554;48.940;12.050;2022-11-20T06:03:52;2.55;;;2.33;;
75007;SDS011;63554;48.940;12.050;2022-11-20T06:07:55;5.20;;;3.20;;
75007;SDS011;63554;48.940;12.050;2022-11-20T06:11:59;2.15;;;1.98;;
75007;SDS011;63554;48.940;12.050;2022-11-20T06:16:02;4.18;;;2.88;;
75007;SDS011;63554;48.940;12.050;2022-11-20T06:20:06;2.72;;;2.53;;
75007;SDS011;63554;48.940;12.050;2022-11-20T06:24:09;3.42;;;2.75;;
75007;SDS011;63554;48.940;12.050;2022-11-20T06:28:14;2.97;;;2.58;;
75007;SDS011;63554;48.940;12.050;2022-11-20T06:32:16;2.55;;;2.22;;
75007;SDS011;63554;48.940;12.050;2022-11-20T06:36:19;3.33;;;2.38;;
75007;SDS011;63554;48.940;12.050;2022-11-20T06:40:23;3.58;;;2.45;;
75007;SDS011;63554;48.940;12.050;2022-11-20T06:44:27;4.35;;;3.20;;
75007;SDS011;63554;48.940;12.050;2022-11-20T06:48:30;4.32;;;3.92;;
75007;SDS011;63554;48.940;12.050;2022-11-20T06:52:33;6.53;;;3.90;;
75007;SDS011;63554;48.940;12.050;2022-11-20T06:56:42;4.15;;;3.75;;
75007;SDS011;63554;48.940;12.050;2022-11-20T07:00:50;3.65;;;2.42;;
75007;SDS011;63554;48.940;12.050;2022-11-20T07:04:53;4.10;;;3.25;;
75007;SDS011;63554;48.940;12.050;2022-11-20T07:08:55;3.85;;;3.47;;
75007;SDS011;63554;48.940;12.050;2022-11-20T07:12:58;3.08;;;2.58;;
75007;SDS011;63554;48.940;12.050;2022-11-20T07:17:03;3.35;;;3.05;;
75007;SDS011;63554;48.940;12.050;2022-11-20T07:21:06;3.25;;;1.55;;
75007;SDS011;63554;48.940;12.050;2022-11-20T07:25:10;2.67;;;2.42;;
75007;SDS011;63554;48.940;12.050;2022-11-20T07:29:12;3.92;;;2.35;;
75007;SDS011;63554;48.940;12.050;2022-11-20T07:33:17;4.65;;;3.15;;
75007;SDS011;63554;48.940;12.050;2022-11-20T07:37:20;3.30;;;2.65;;
75007;SDS011;63554;48.940;12.050;2022-11-20T07:41:22;2.80;;;2.42;;
75007;SDS011;63554;48.940;12.050;2022-11-20T07:45:25;5.15;;;3.33;;
75007;SDS011;63554;48.940;12.050;2022-11-20T07:49:29;7.68;;;4.85;;
75007;SDS011;63554;48.940;12.050;2022-11-20T07:53:32;5.95;;;4.78;;
75007;SDS011;63554;48.940;12.050;2022-11-20T07:57:35;2.33;;;1.65;;
75007;SDS011;63554;48.940;12.050;2022-11-20T08:01:37;3.88;;;3.33;;
75007;SDS011;63554;48.940;12.050;2022-11-20T08:05:42;4.30;;;2.88;;
75007;SDS011;63554;48.940;12.050;2022-11-20T08:09:44;6.97;;;4.15;;
75007;SDS011;63554;48.940;12.050;2022-11-20T08:13:47;2.83;;;2.53;;
75007;SDS011;63554;48.940;12.050;2022-11-20T08:18:08;4.97;;;2.95;;
75007;SDS011;63554;48.940;12.050;2022-11-20T08:22:34;3.15;;;2.92;;
75007;SDS011;63554;48.940;12.050;2022-11-20T08:26:38;2.22;;;1.85;;
75007;SDS011;63554;48.940;12.050;2022-11-20T08:30:41;24.02;;;4.68;;
75007;SDS011;63554;48.940;12.050;2022-11-20T08:34:44;7.63;;;4.32;;
75007;SDS011;63554;48.940;12.050;2022-11-20T08:38:49;5.93;;;4.45;;
75007;SDS011;63554;48.940;12.050;2022-11-20T08:42:52;3.95;;;3.15;;
75007;SDS011;63554;48.940;12.050;2022-11-20T08:46:55;3.17;;;2.42;;
75007;SDS011;63554;48.940;12.050;2022-11-20T08:50:58;3.33;;;2.20;;
75007;SDS011;63554;48.940;12.050;2022-11-20T08:55:03;2.80;;;2.60;;
75007;SDS011;63554;48.940;12.050;2022-11-20T08:59:07;2.10;;;2.00;;
75007;SDS011;63554;48.940;12.050;2022-11-20T09:03:29;2.30;;;1.70;;
75007;SDS011;63554;48.940;12.050;2022-11-20T09:07:33;5.13;;;2.17;;
75007;SDS011;63554;48.940;12.050;2022-11-20T09:11:37;8.63;;;3.08;;
75007;SDS011;63554;48.940;12.050;2022-11-20T09:15:39;6.03;;;3.03;;
75007;SDS011;63554;48.940;12.050;2022-11-20T09:19:42;5.18;;;3.00;;
75007;SDS011;63554;48.940;12.050;2022-11-20T09:23:45;3.20;;;2.72;;
75007;SDS011;63554;48.940;12.050;2022-11-20T09:27:54;2.95;;;2.58;;
75007;SDS011;63554;48.940;12.050;2022-11-20T09:31:57;3.33;;;2.53;;
75007;SDS011;63554;48.940;12.050;2022-11-20T09:36:00;4.82;;;2.03;;
75007;SDS011;63554;48.940;12.050;2022-11-20T09:40:02;3.47;;;2.97;;
75007;SDS011;63554;48.940;12.050;2022-11-20T09:44:10;1.90;;;1.50;;
75007;SDS011;63554;48.940;12.050;2022-11-20T09:48:33;2.40;;;2.05;;
75007;SDS011;63554;48.940;12.050;2022-11-20T09:52:46;4.97;;;2.42;;
75007;SDS011;63554;48.940;12.050;2022-11-20T09:56:59;2.15;;;1.90;;
75007;SDS011;63554;48.940;12.050;2022-11-20T10:01:08;2.80;;;1.27;;
75007;SDS011;63554;48.940;12.050;2022-11-20T10:05:15;1.50;;;1.38;;
75007;SDS011;63554;48.940;12.050;2022-11-20T10:13:33;1.90;;;1.80;;
75007;SDS011;63554;48.940;12.050;2022-11-20T10:17:58;2.47;;;1.95;;
75007;SDS011;63554;48.940;12.050;2022-11-20T10:22:22;2.13;;;1.27;;
75007;SDS011;63554;48.940;12.050;2022-11-20T10:26:38;1.42;;;1.33;;
75007;SDS011;63554;48.940;12.050;2022-11-20T10:30:52;3.15;;;2.50;;
75007;SDS011;63554;48.940;12.050;2022-11-20T10:35:02;4.57;;;1.67;;
75007;SDS011;63554;48.940;12.050;2022-11-20T10:39:14;1.70;;;1.60;;
75007;SDS011;63554;48.940;12.050;2022-11-20T10:43:23;1.92;;;1.45;;
75007;SDS011;63554;48.940;12.050;2022-11-20T10:47:34;2.22;;;2.03;;
75007;SDS011;63554;48.940;12.050;2022-11-20T10:51:43;2.58;;;1.40;;
75007;SDS011;63554;48.940;12.050;2022-11-20T10:55:55;2.20;;;1.55;;
75007;SDS011;63554;48.940;12.050;2022-11-20T11:00:04;1.92;;;1.52;;
75007;SDS011;63554;48.940;12.050;2022-11-20T11:08:37;2.72;;;2.30;;
75007;SDS011;63554;48.940;12.050;2022-11-20T11:16:49;0.98;;;0.88;;
75007;SDS011;63554;48.940;12.050;2022-11-20T11:20:53;3.88;;;1.58;;
75007;SDS011;63554;48.940;12.050;2022-11-20T11:24:58;1.42;;;1.33;;
75007;SDS011;63554;48.940;12.050;2022-11-20T11:29:02;2.00;;;1.40;;
75007;SDS011;63554;48.940;12.050;2022-11-20T11:33:06;1.95;;;1.67;;
75007;SDS011;63554;48.940;12.050;2022-11-20T11:37:14;0.95;;;0.85;;
75007;SDS011;63554;48.940;12.050;2022-11-20T11:41:25;3.28;;;1.33;;
75007;SDS011;63554;48.940;12.050;2022-11-20T11:45:33;1.33;;;1.23;;
75007;SDS011;63554;48.940;12.050;2022-11-20T11:49:35;0.90;;;0.85;;
75007;SDS011;63554;48.940;12.050;2022-11-20T11:53:38;2.20;;;1.80;;
75007;SDS011;63554;48.940;12.050;2022-11-20T11:57:46;1.75;;;1.40;;
75007;SDS011;63554;48.940;12.050;2022-11-20T12:01:54;1.20;;;1.10;;
75007;SDS011;63554;48.940;12.050;2022-11-20T12:06:04;1.77;;;1.67;;
75007;SDS011;63554;48.940;12.050;2022-11-20T12:10:17;3.45;;;2.30;;
75007;SDS011;63554;48.940;12.050;2022-11-20T12:14:26;1.85;;;1.38;;
75007;SDS011;63554;48.940;12.050;2022-11-20T12:18:35;3.00;;;1.52;;
75007;SDS011;63554;48.940;12.050;2022-11-20T12:22:40;2.45;;;1.60;;
75007;SDS011;63554;48.940;12.050;2022-11-20T12:26:55;1.83;;;1.42;;
75007;SDS011;63554;48.940;12.050;2022-11-20T12:31:13;1.20;;;1.10;;
75007;SDS011;63554;48.940;12.050;2022-11-20T12:35:38;4.32;;;1.40;;
75007;SDS011;63554;48.940;12.050;2022-11-20T12:39:50;3.00;;;1.80;;
75007;SDS011;63554;48.940;12.050;2022-11-20T12:43:58;1.77;;;1.17;;
75007;SDS011;63554;48.940;12.050;2022-11-20T12:48:31;4.97;;;1.40;;
75007;SDS011;63554;48.940;12.050;2022-11-20T12:52:47;2.25;;;1.60;;
75007;SDS011;63554;48.940;12.050;2022-11-20T12:56:55;2.33;;;1.90;;
75007;SDS011;63554;48.940;12.050;2022-11-20T13:01:06;2.45;;;1.08;;
75007;SDS011;63554;48.940;12.050;2022-11-20T13:05:43;1.23;;;1.13;;
75007;SDS011;63554;48.940;12.050;2022-11-20T13:09:55;1.45;;;1.35;;
75007;SDS011;63554;48.940;12.050;2022-11-20T13:14:09;2.20;;;1.50;;
75007;SDS011;63554;48.940;12.050;2022-11-20T13:18:26;2.38;;;1.42;;
75007;SDS011;63554;48.940;12.050;2022-11-20T13:22:42;1.10;;;1.00;;
75007;SDS011;63554;48.940;12.050;2022-11-20T13:26:46;0.90;;;0.90;;
75007;SDS011;63554;48.940;12.050;2022-11-20T13:30:50;0.70;;;0.70;;
75007;SDS011;63554;48.940;12.050;2022-11-20T13:34:54;1.80;;;1.00;;
75007;SDS011;63554;48.940;12.050;2022-11-20T13:39:00;0.65;;;0.65;;
75007;SDS011;63554;48.940;12.050;2022-11-20T13:51:32;1.05;;;0.90;;
75007;SDS011;63554;48.940;12.050;2022-11-20T13:55:46;1.00;;;1.00;;
75007;SDS011;63554;48.940;12.050;2022-11-20T13:59:58;1.42;;;1.30;;
75007;SDS011;63554;48.940;12.050;2022-11-20T14:04:08;1.30;;;1.08;;
75007;SDS011;63554;48.940;12.050;2022-11-20T14:08:17;1.02;;;0.93;;
75007;SDS011;63554;48.940;12.050;2022-11-20T14:12:29;2.00;;;1.40;;
75007;SDS011;63554;48.940;12.050;2022-11-20T14:16:33;3.28;;;2.13;;
75007;SDS011;63554;48.940;12.050;2022-11-20T14:20:38;3.35;;;2.03;;
75007;SDS011;63554;48.940;12.050;2022-11-20T14:24:41;3.25;;;1.98;;
75007;SDS011;63554;48.940;12.050;2022-11-20T14:28:47;1.80;;;1.52;;
75007;SDS011;63554;48.940;12.050;2022-11-20T14:36:55;0.98;;;0.98;;
75007;SDS011;63554;48.940;12.050;2022-11-20T14:41:07;2.28;;;2.17;;
75007;SDS011;63554;48.940;12.050;2022-11-20T14:45:12;2.10;;;1.67;;
75007;SDS011;63554;48.940;12.050;2022-11-20T14:49:15;3.03;;;2.33;;
75007;SDS011;63554;48.940;12.050;2022-11-20T14:53:22;3.65;;;1.70;;
75007;SDS011;63554;48.940;12.050;2022-11-20T14:57:26;3.17;;;2.78;;
75007;SDS011;63554;48.940;12.050;2022-11-20T15:01:33;3.90;;;2.50;;
75007;SDS011;63554;48.940;12.050;2022-11-20T15:05:46;2.42;;;1.90;;
75007;SDS011;63554;48.940;12.050;2022-11-20T15:10:01;2.60;;;2.40;;
75007;SDS011;63554;48.940;12.050;2022-11-20T15:14:05;1.58;;;1.48;;
75007;SDS011;63554;48.940;12.050;2022-11-20T15:18:11;1.23;;;0.93;;
75007;SDS011;63554;48.940;12.050;2022-11-20T15:22:16;1.77;;;1.48;;
75007;SDS011;63554;48.940;12.050;2022-11-20T15:26:20;1.55;;;1.40;;
75007;SDS011;63554;48.940;12.050;2022-11-20T15:30:26;1.90;;;1.30;;
75007;SDS011;63554;48.940;12.050;2022-11-20T15:34:30;6.38;;;2.03;;
75007;SDS011;63554;48.940;12.050;2022-11-20T15:38:33;7.85;;;5.15;;
75007;SDS011;63554;48.940;12.050;2022-11-20T15:42:36;10.55;;;3.53;;
75007;SDS011;63554;48.940;12.050;2022-11-20T15:46:39;1.25;;;1.15;;
75007;SDS011;63554;48.940;12.050;2022-11-20T15:50:49;2.40;;;1.60;;
75007;SDS011;63554;48.940;12.050;2022-11-20T15:54:55;1.27;;;1.17;;
75007;SDS011;63554;48.940;12.050;2022-11-20T15:58:57;2.47;;;2.28;;
75007;SDS011;63554;48.940;12.050;2022-11-20T16:03:00;2.08;;;1.63;;
75007;SDS011;63554;48.940;12.050;2022-11-20T16:07:04;1.42;;;1.42;;
75007;SDS011;63554;48.940;12.050;2022-11-20T16:11:09;1.52;;;1.42;;
75007;SDS011;63554;48.940;12.050;2022-11-20T16:15:13;2.28;;;1.58;;
75007;SDS011;63554;48.940;12.050;2022-11-20T16:19:33;2.13;;;1.23;;
75007;SDS011;63554;48.940;12.050;2022-11-20T16:23:37;2.95;;;1.85;;
75007;SDS011;63554;48.940;12.050;2022-11-20T16:27:40;1.60;;;1.48;;
75007;SDS011;63554;48.940;12.050;2022-11-20T16:31:42;1.75;;;1.52;;
75007;SDS011;63554;48.940;12.050;2022-11-20T16:35:45;1.58;;;1.48;;
75007;SDS011;63554;48.940;12.050;2022-11-20T16:39:49;2.05;;;1.55;;
75007;SDS011;63554;48.940;12.050;2022-11-20T16:43:53;3.08;;;2.63;;
75007;SDS011;63554;48.940;12.050;2022-11-20T16:47:58;4.65;;;3.67;;
75007;SDS011;63554;48.940;12.050;2022-11-20T16:52:01;9.75;;;5.18;;
75007;SDS011;63554;48.940;12.050;2022-11-20T16:56:09;2.65;;;1.95;;
75007;SDS011;63554;48.940;12.050;2022-11-20T17:00:14;1.02;;;0.95;;
75007;SDS011;63554;48.940;12.050;2022-11-20T17:04:18;1.20;;;1.10;;
75007;SDS011;63554;48.940;12.050;2022-11-20T17:08:21;2.42;;;2.22;;
75007;SDS011;63554;48.940;12.050;2022-11-20T17:12:26;1.50;;;1.10;;
75007;SDS011;63554;48.940;12.050;2022-11-20T17:16:29;0.85;;;0.70;;
75007;SDS011;63554;48.940;12.050;2022-11-20T17:20:32;1.08;;;1.00;;
75007;SDS011;63554;48.940;12.050;2022-11-20T17:24:35;1.02;;;0.75;;
75007;SDS011;63554;48.940;12.050;2022-11-20T17:28:39;2.38;;;2.03;;
75007;SDS011;63554;48.940;12.050;2022-11-20T17:32:42;1.52;;;1.40;;
75007;SDS011;63554;48.940;12.050;2022-11-20T17:36:47;2.20;;;1.00;;
75007;SDS011;63554;48.940;12.050;2022-11-20T17:40:50;1.60;;;1.50;;
75007;SDS011;63554;48.940;12.050;2022-11-20T17:44:54;2.67;;;2.03;;
75007;SDS011;63554;48.940;12.050;2022-11-20T17:48:58;4.32;;;2.63;;
75007;SDS011;63554;48.940;12.050;2022-11-20T17:53:02;3.55;;;2.60;;
75007;SDS011;63554;48.940;12.050;2022-11-20T17:57:05;4.63;;;2.65;;
75007;SDS011;63554;48.940;12.050;2022-11-20T18:01:27;5.95;;;3.22;;
75007;SDS011;63554;48.940;12.050;2022-11-20T18:05:29;6.25;;;3.75;;
75007;SDS011;63554;48.940;12.050;2022-11-20T18:09:32;13.88;;;6.78;;
75007;SDS011;63554;48.940;12.050;2022-11-20T18:13:35;4.28;;;3.40;;
75007;SDS011;63554;48.940;12.050;2022-11-20T18:17:53;8.68;;;5.05;;
75007;SDS011;63554;48.940;12.050;2022-11-20T18:21:56;7.35;;;4.95;;
75007;SDS011;63554;48.940;12.050;2022-11-20T18:26:00;8.68;;;4.72;;
75007;SDS011;63554;48.940;12.050;2022-11-20T18:30:03;7.22;;;4.72;;
75007;SDS011;63554;48.940;12.050;2022-11-20T18:34:08;7.55;;;4.45;;
75007;SDS011;63554;48.940;12.050;2022-11-20T18:38:13;6.28;;;4.53;;
75007;SDS011;63554;48.940;12.050;2022-11-20T18:42:15;5.97;;;4.00;;
75007;SDS011;63554;48.940;12.050;2022-11-20T18:46:36;3.60;;;3.15;;
75007;SDS011;63554;48.940;12.050;2022-11-20T18:50:40;3.60;;;3.30;;
75007;SDS011;63554;48.940;12.050;2022-11-20T18:54:43;5.88;;;4.05;;
75007;SDS011;63554;48.940;12.050;2022-11-20T18:58:45;9.85;;;4.60;;
75007;SDS011;63554;48.940;12.050;2022-11-20T19:02:51;8.15;;;5.50;;
75007;SDS011;63554;48.940;12.050;2022-11-20T19:06:56;6.90;;;5.60;;
75007;SDS011;63554;48.940;12.050;2022-11-20T19:11:03;6.38;;;3.38;;
75007;SDS011;63554;48.940;12.050;2022-11-20T19:15:07;4.90;;;3.65;;
75007;SDS011;63554;48.940;12.050;2022-11-20T19:19:10;5.32;;;3.00;;
75007;SDS011;63554;48.940;12.050;2022-11-20T19:23:14;11.35;;;3.78;;
75007;SDS011;63554;48.940;12.050;2022-11-20T19:27:18;10.20;;;4.65;;
75007;SDS011;63554;48.940;12.050;2022-11-20T19:31:22;9.85;;;4.18;;
75007;SDS011;63554;48.940;12.050;2022-11-20T19:35:27;10.30;;;5.82;;
75007;SDS011;63554;48.940;12.050;2022-11-20T19:39:31;8.13;;;4.68;;
75007;SDS011;63554;48.940;12.050;2022-11-20T19:43:35;6.03;;;4.90;;
75007;SDS011;63554;48.940;12.050;2022-11-20T19:47:38;5.25;;;3.15;;
75007;SDS011;63554;48.940;12.050;2022-11-20T19:52:01;4.22;;;2.65;;
75007;SDS011;63554;48.940;12.050;2022-11-20T19:56:05;2.78;;;2.35;;
75007;SDS011;63554;48.940;12.050;2022-11-20T20:00:09;3.03;;;2.30;;
75007;SDS011;63554;48.940;12.050;2022-11-20T20:04:12;4.47;;;2.55;;
75007;SDS011;63554;48.940;12.050;2022-11-20T20:08:15;3.13;;;2.42;;
75007;SDS011;63554;48.940;12.050;2022-11-20T20:12:19;3.55;;;2.72;;
75007;SDS011;63554;48.940;12.050;2022-11-20T20:16:22;3.70;;;2.92;;
75007;SDS011;63554;48.940;12.050;2022-11-20T20:20:28;2.88;;;2.17;;
75007;SDS011;63554;48.940;12.050;2022-11-20T20:24:31;3.63;;;2.35;;
75007;SDS011;63554;48.940;12.050;2022-11-20T20:28:35;2.05;;;1.85;;
75007;SDS011;63554;48.940;12.050;2022-11-20T20:32:39;2.15;;;1.75;;
75007;SDS011;63554;48.940;12.050;2022-11-20T20:36:41;2.92;;;2.10;;
75007;SDS011;63554;48.940;12.050;2022-11-20T20:40:47;3.22;;;2.40;;
75007;SDS011;63554;48.940;12.050;2022-11-20T20:44:52;1.48;;;1.15;;
75007;SDS011;63554;48.940;12.050;2022-11-20T20:49:11;2.03;;;1.50;;
75007;SDS011;63554;48.940;12.050;2022-11-20T20:53:14;1.80;;;1.45;;
75007;SDS011;63554;48.940;12.050;2022-11-20T20:57:16;1.83;;;1.73;;
75007;SDS011;63554;48.940;12.050;2022-11-20T21:01:21;1.75;;;1.65;;
75007;SDS011;63554;48.940;12.050;2022-11-20T21:05:28;2.38;;;2.13;;
75007;SDS011;63554;48.940;12.050;2022-11-20T21:09:31;1.48;;;1.38;;
75007;SDS011;63554;48.940;12.050;2022-11-20T21:13:34;1.85;;;1.75;;
75007;SDS011;63554;48.940;12.050;2022-11-20T21:17:39;2.47;;;1.60;;
75007;SDS011;63554;48.940;12.050;2022-11-20T21:21:44;2.40;;;2.20;;
75007;SDS011;63554;48.940;12.050;2022-11-20T21:26:04;2.60;;;1.90;;
75007;SDS011;63554;48.940;12.050;2022-11-20T21:30:09;2.13;;;1.55;;
75007;SDS011;63554;48.940;12.050;2022-11-20T21:34:14;1.52;;;1.23;;
75007;SDS011;63554;48.940;12.050;2022-11-20T21:38:18;4.05;;;2.58;;
75007;SDS011;63554;48.940;12.050;2022-11-20T21:42:21;8.48;;;5.00;;
75007;SDS011;63554;48.940;12.050;2022-11-20T21:46:23;5.38;;;3.53;;
75007;SDS011;63554;48.940;12.050;2022-11-20T21:50:27;2.72;;;2.38;;
75007;SDS011;63554;48.940;12.050;2022-11-20T21:54:30;2.28;;;2.08;;
75007;SDS011;63554;48.940;12.050;2022-11-20T21:58:36;1.35;;;1.25;;
75007;SDS011;63554;48.940;12.050;2022-11-20T22:02:40;2.22;;;1.52;;
75007;SDS011;63554;48.940;12.050;2022-11-20T22:06:44;2.35;;;2.15;;
75007;SDS011;63554;48.940;12.050;2022-11-20T22:10:52;3.03;;;1.92;;
75007;SDS011;63554;48.940;12.050;2022-11-20T22:14:56;3.30;;;2.58;;
75007;SDS011;63554;48.940;12.050;2022-11-20T22:18:58;2.60;;;1.63;;
75007;SDS011;63554;48.940;12.050;2022-11-20T22:23:03;2.03;;;1.75;;
75007;SDS011;63554;48.940;12.050;2022-11-20T22:27:05;2.33;;;2.13;;
75007;SDS011;63554;48.940;12.050;2022-11-20T22:31:09;1.70;;;1.30;;
75007;SDS011;63554;48.940;12.050;2022-11-20T22:35:12;1.88;;;1.45;;
75007;SDS011;63554;48.940;12.050;2022-11-20T22:39:17;1.63;;;1.40;;
75007;SDS011;63554;48.940;12.050;2022-11-20T22:43:22;1.35;;;1.25;;
75007;SDS011;63554;48.940;12.050;2022-11-20T22:47:24;1.05;;;1.05;;
75007;SDS011;63554;48.940;12.050;2022-11-20T22:51:28;2.53;;;1.30;;
75007;SDS011;63554;48.940;12.050;2022-11-20T22:55:33;0.98;;;0.98;;
75007;SDS011;63554;48.940;12.050;2022-11-20T22:59:35;0.73;;;0.73;;
75007;SDS011;63554;48.940;12.050;2022-11-20T23:03:38;0.80;;;0.80;;
75007;SDS011;63554;48.940;12.050;2022-11-20T23:07:42;0.70;;;0.70;;
75007;SDS011;63554;48.940;12.050;2022-11-20T23:11:46;0.95;;;0.90;;
75007;SDS011;63554;48.940;12.050;2022-11-20T23:15:49;1.20;;;0.90;;
75007;SDS011;63554;48.940;12.050;2022-11-20T23:19:52;0.93;;;0.93;;
75007;SDS011;63554;48.940;12.050;2022-11-20T23:23:55;0.90;;;0.90;;
75007;SDS011;63554;48.940;12.050;2022-11-20T23:28:00;1.30;;;1.20;;
75007;SDS011;63554;48.940;12.050;2022-11-20T23:32:03;1.00;;;1.00;;
75007;SDS011;63554;48.940;12.050;2022-11-20T23:36:06;0.93;;;0.90;;
75007;SDS011;63554;48.940;12.050;2022-11-20T23:40:09;1.00;;;0.85;;
75007;SDS011;63554;48.940;12.050;2022-11-20T23:44:14;0.98;;;0.98;;
75007;SDS011;63554;48.940;12.050;2022-11-20T23:48:17;0.80;;;0.80;;
75007;SDS011;63554;48.940;12.050;2022-11-20T23:52:21;0.55;;;0.55;;
75007;SDS011;63554;48.940;12.050;2022-11-20T23:56:26;0.80;;;0.75;;
